createdAt,value
2023-04-19T00:00:40.184Z,99873.44
2023-04-19T00:01:44.317Z,99880.88
2023-04-19T00:02:50.040Z,99874.44
2023-04-19T00:03:54.170Z,99875.84
2023-04-19T00:04:58.082Z,99876.31
2023-04-19T00:06:01.760Z,99876.31
2023-04-19T00:07:05.625Z,99877.13
2023-04-19T00:08:09.562Z,99878.81
2023-04-19T00:09:13.442Z,99885.84
2023-04-19T00:10:17.172Z,99887.97
2023-04-19T00:11:21.024Z,99872.16
2023-04-19T00:12:24.607Z,99879.69
2023-04-19T00:13:27.798Z,99881.78
2023-04-19T00:14:31.646Z,99882.81
2023-04-19T00:15:36.153Z,99888.50
2023-04-19T00:16:39.670Z,99877.25
2023-04-19T00:17:43.721Z,99881.47
2023-04-19T00:18:47.718Z,99883.56
2023-04-19T00:19:51.579Z,99886.50
2023-04-19T00:20:54.715Z,99887.75
2023-04-19T00:21:58.532Z,99880.25
2023-04-19T00:23:02.186Z,99888.38
2023-04-19T00:24:06.631Z,99885.06
2023-04-19T00:25:09.871Z,99880.69
2023-04-19T00:26:16.307Z,99882.19
2023-04-19T00:27:25.801Z,99882.63
2023-04-19T00:28:29.641Z,99875.56
2023-04-19T00:29:33.844Z,99877.03
2023-04-19T00:30:37.494Z,99880.56
2023-04-19T00:31:41.557Z,99874.56
2023-04-19T00:32:45.037Z,99878.09
2023-04-19T00:33:48.172Z,99889.38
2023-04-19T00:34:51.552Z,99890.41
2023-04-19T00:35:54.967Z,99888.53
2023-04-19T00:36:58.716Z,99880.03
2023-04-19T00:38:02.456Z,99872.56
2023-04-19T00:39:05.890Z,99877.16
2023-04-19T00:40:09.866Z,99880.28
2023-04-19T00:41:14.127Z,99874.94
2023-04-19T00:42:18.224Z,99881.78
2023-04-19T00:43:23.763Z,99873.06
2023-04-19T00:44:27.225Z,99868.06
2023-04-19T00:45:31.005Z,99874.53
2023-04-19T00:46:34.748Z,99872.28
2023-04-19T00:47:38.038Z,99874.97
2023-04-19T00:48:42.008Z,99866.88
2023-04-19T00:49:46.942Z,99862.50
2023-04-19T00:50:50.730Z,99858.56
2023-04-19T00:51:54.793Z,99865.03
2023-04-19T00:53:01.175Z,99866.06
2023-04-19T00:54:05.221Z,99860.28
2023-04-19T00:55:08.957Z,99864.06
2023-04-19T00:56:12.166Z,99862.41
2023-04-19T00:57:17.694Z,99857.44
2023-04-19T00:58:21.439Z,99859.09
2023-04-19T00:59:24.736Z,99858.47
2023-04-19T01:00:28.388Z,99849.53
2023-04-19T01:01:32.329Z,99851.56
2023-04-19T01:02:36.914Z,99854.69
2023-04-19T01:03:40.796Z,99851.56
2023-04-19T01:04:45.370Z,99856.16
2023-04-19T01:05:50.562Z,99863.69
2023-04-19T01:06:54.105Z,99865.97
2023-04-19T01:07:58.296Z,99866.41
2023-04-19T01:09:02.717Z,99859.78
2023-04-19T01:10:06.722Z,99854.56
2023-04-19T01:11:10.012Z,99857.44
2023-04-19T01:12:13.717Z,99861.81
2023-04-19T01:13:19.282Z,99853.69
2023-04-19T01:14:23.210Z,99848.69
2023-04-19T01:15:27.195Z,99856.59
2023-04-19T01:16:31.104Z,99854.56
2023-04-19T01:17:35.188Z,99851.19
2023-04-19T01:18:41.810Z,99853.91
2023-04-19T01:19:45.290Z,99849.31
2023-04-19T01:20:48.656Z,99849.94
2023-04-19T01:21:53.618Z,99849.94
2023-04-19T01:22:57.041Z,99849.47
2023-04-19T01:24:00.592Z,99853.22
2023-04-19T01:25:05.145Z,99846.97
2023-04-19T01:26:08.366Z,99847.81
2023-04-19T01:27:12.197Z,99842.63
2023-04-19T01:28:15.496Z,99842.84
2023-04-19T01:29:19.852Z,99847.41
2023-04-19T01:30:23.875Z,99850.69
2023-04-19T01:31:27.937Z,99837.00
2023-04-19T01:32:31.845Z,99839.91
2023-04-19T01:33:35.505Z,99847.22
2023-04-19T01:34:39.006Z,99845.31
2023-04-19T01:35:42.570Z,99846.59
2023-04-19T01:36:46.805Z,99844.53
2023-04-19T01:37:51.732Z,99844.53
2023-04-19T01:38:55.343Z,99841.19
2023-04-19T01:39:58.662Z,99841.63
2023-04-19T01:41:04.099Z,99846.66
2023-04-19T01:42:07.959Z,99839.19
2023-04-19T01:43:17.729Z,99842.06
2023-04-19T01:44:20.895Z,99841.88
2023-04-19T01:45:24.113Z,99838.97
2023-04-19T01:46:27.861Z,99836.25
2023-04-19T01:47:31.615Z,99841.22
2023-04-19T01:48:35.335Z,99843.34
2023-04-19T01:49:39.300Z,99839.19
2023-04-19T01:50:42.593Z,99844.16
2023-04-19T01:51:47.865Z,99837.94
2023-04-19T01:52:51.463Z,99847.09
2023-04-19T01:53:55.578Z,99837.47
2023-04-19T01:54:59.856Z,99840.41
2023-04-19T01:56:03.304Z,99839.56
2023-04-19T01:57:07.072Z,99835.44
2023-04-19T01:58:11.058Z,99843.09
2023-04-19T01:59:15.367Z,99838.91
2023-04-19T02:00:18.824Z,99841.03
2023-04-19T02:01:24.299Z,99832.91
2023-04-19T02:02:28.215Z,99832.91
2023-04-19T02:03:32.435Z,99840.34
2023-04-19T02:04:36.478Z,99837.88
2023-04-19T02:05:42.608Z,99829.34
2023-04-19T02:06:45.993Z,99837.03
2023-04-19T02:07:49.784Z,99836.66
2023-04-19T02:08:53.600Z,99836.84
2023-04-19T02:09:56.901Z,99829.56
2023-04-19T02:11:00.653Z,99829.81
2023-04-19T02:12:05.929Z,99830.41
2023-04-19T02:13:09.748Z,99831.28
2023-04-19T02:14:13.378Z,99834.44
2023-04-19T02:15:17.202Z,99833.81
2023-04-19T02:16:21.028Z,99837.13
2023-04-19T02:17:26.984Z,99831.28
2023-04-19T02:18:31.513Z,99830.84
2023-04-19T02:19:35.161Z,99829.38
2023-04-19T02:20:38.773Z,99828.34
2023-04-19T02:21:42.340Z,99840.00
2023-04-19T02:22:46.030Z,99826.06
2023-04-19T02:23:49.568Z,99836.09
2023-04-19T02:24:53.674Z,99830.94
2023-04-19T02:26:04.262Z,99834.06
2023-04-19T02:27:08.005Z,99824.13
2023-04-19T02:28:11.924Z,99828.50
2023-04-19T02:29:17.542Z,99827.50
2023-04-19T02:30:21.354Z,99829.00
2023-04-19T02:31:24.750Z,99831.50
2023-04-19T02:32:28.814Z,99838.38
2023-04-19T02:33:32.415Z,99831.34
2023-04-19T02:34:36.975Z,99829.03
2023-04-19T02:35:40.273Z,99831.09
2023-04-19T02:36:43.674Z,99826.94
2023-04-19T02:37:47.806Z,99826.50
2023-04-19T02:38:51.464Z,99834.59
2023-04-19T02:39:56.972Z,99833.53
2023-04-19T02:41:02.253Z,99842.66
2023-04-19T02:42:06.518Z,99841.19
2023-04-19T02:43:10.171Z,99840.09
2023-04-19T02:44:13.674Z,99832.19
2023-04-19T02:45:19.332Z,99830.22
2023-04-19T02:46:22.879Z,99842.91
2023-04-19T02:47:26.459Z,99843.28
2023-04-19T02:48:29.654Z,99838.03
2023-04-19T02:49:36.630Z,99838.44
2023-04-19T02:50:41.364Z,99836.56
2023-04-19T02:51:45.254Z,99836.56
2023-04-19T02:52:49.808Z,99835.50
2023-04-19T02:53:54.543Z,99843.19
2023-04-19T02:54:58.383Z,99828.16
2023-04-19T02:56:02.676Z,99845.19
2023-04-19T02:57:05.882Z,99843.28
2023-04-19T02:58:09.826Z,99837.41
2023-04-19T02:59:23.652Z,99834.25
2023-04-19T03:00:27.489Z,99838.63
2023-04-19T03:01:40.523Z,99845.03
2023-04-19T03:02:45.596Z,99843.78
2023-04-19T03:03:49.759Z,99835.03
2023-04-19T03:04:56.028Z,99837.53
2023-04-19T03:05:59.553Z,99836.69
2023-04-19T03:07:04.783Z,99833.16
2023-04-19T03:08:07.991Z,99836.69
2023-04-19T03:09:12.391Z,99840.81
2023-04-19T03:10:16.719Z,99829.97
2023-04-19T03:11:20.717Z,99828.56
2023-04-19T03:12:24.796Z,99829.19
2023-04-19T03:13:28.955Z,99832.94
2023-04-19T03:14:34.796Z,99836.69
2023-04-19T03:15:38.426Z,99829.03
2023-04-19T03:16:42.537Z,99831.72
2023-04-19T03:17:46.857Z,99832.78
2023-04-19T03:18:51.228Z,99839.22
2023-04-19T03:19:59.606Z,99839.28
2023-04-19T03:21:04.382Z,99828.06
2023-04-19T03:22:16.272Z,99834.75
2023-04-19T03:23:19.916Z,99824.38
2023-04-19T03:24:31.093Z,99823.53
2023-04-19T03:25:38.764Z,99817.28
2023-04-19T03:27:15.715Z,99819.31
2023-04-19T03:28:22.800Z,99825.03
2023-04-19T03:29:48.789Z,99826.34
2023-04-19T03:30:52.542Z,99824.50
2023-04-19T03:31:55.854Z,99828.69
2023-04-19T03:33:01.141Z,99834.13
2023-04-19T03:34:04.993Z,99822.06
2023-04-19T03:35:15.135Z,99829.34
2023-04-19T03:36:18.694Z,99827.47
2023-04-19T03:37:23.755Z,99822.66
2023-04-19T03:38:27.460Z,99824.13
2023-04-19T03:39:31.938Z,99826.16
2023-04-19T03:40:39.332Z,99829.31
2023-04-19T03:41:45.013Z,99828.28
2023-04-19T03:43:06.367Z,99824.13
2023-04-19T03:44:11.431Z,99825.38
2023-04-19T03:45:18.320Z,99825.19
2023-04-19T03:46:24.631Z,99824.59
2023-04-19T03:47:28.566Z,99820.41
2023-04-19T03:48:36.568Z,99823.38
2023-04-19T03:49:40.210Z,99830.03
2023-04-19T03:50:43.751Z,99821.06
2023-04-19T03:51:50.679Z,99819.00
2023-04-19T03:52:55.214Z,99831.25
2023-04-19T03:53:58.912Z,99829.38
2023-04-19T03:55:04.175Z,99820.41
2023-04-19T03:56:12.644Z,99826.06
2023-04-19T03:57:18.627Z,99826.28
2023-04-19T03:58:23.193Z,99822.94
2023-04-19T03:59:34.491Z,99824.84
2023-04-19T04:00:38.988Z,99825.31
2023-04-19T04:01:42.942Z,99830.16
2023-04-19T04:02:46.676Z,99825.38
2023-04-19T04:03:50.403Z,99822.28
2023-04-19T04:04:55.996Z,99821.22
2023-04-19T04:06:00.336Z,99820.63
2023-04-19T04:07:04.287Z,99824.25
2023-04-19T04:08:08.613Z,99832.38
2023-04-19T04:09:12.468Z,99819.75
2023-04-19T04:10:16.004Z,99817.03
2023-04-19T04:11:20.491Z,99819.53
2023-04-19T04:12:25.559Z,99824.94
2023-04-19T04:13:31.349Z,99812.88
2023-04-19T04:14:42.934Z,99818.28
2023-04-19T04:15:47.890Z,99816.63
2023-04-19T04:16:52.661Z,99819.09
2023-04-19T04:17:57.762Z,99815.41
2023-04-19T04:19:02.878Z,99814.59
2023-04-19T04:20:10.783Z,99817.09
2023-04-19T04:21:14.640Z,99813.78
2023-04-19T04:22:22.267Z,99822.53
2023-04-19T04:23:26.470Z,99820.03
2023-04-19T04:24:31.202Z,99814.41
2023-04-19T04:26:05.544Z,99829.16
2023-04-19T04:27:28.948Z,99822.91
2023-04-19T04:28:32.954Z,99827.09
2023-04-19T04:29:40.690Z,99833.53
2023-04-19T04:30:45.534Z,99837.50
2023-04-19T04:31:50.167Z,99837.50
2023-04-19T04:32:59.062Z,99842.50
2023-04-19T04:34:04.440Z,99849.16
2023-04-19T04:35:12.028Z,99853.28
2023-04-19T04:36:21.637Z,99854.50
2023-04-19T04:37:27.091Z,99855.72
2023-04-19T04:38:30.947Z,99859.47
2023-04-19T04:39:40.167Z,99858.59
2023-04-19T04:40:50.283Z,99849.25
2023-04-19T04:41:54.151Z,99844.03
2023-04-19T04:42:58.493Z,99855.69
2023-04-19T04:44:12.482Z,99853.56
2023-04-19T04:45:27.283Z,99848.16
2023-04-19T04:46:31.368Z,99847.38
2023-04-19T04:47:35.556Z,99853.16
2023-04-19T04:48:42.091Z,99851.28
2023-04-19T04:49:46.165Z,99857.31
2023-04-19T04:50:50.087Z,99855.22
2023-04-19T04:51:54.598Z,99854.38
2023-04-19T04:52:58.578Z,99856.06
2023-04-19T04:54:06.373Z,99855.22
2023-04-19T04:55:12.056Z,99853.97
2023-04-19T04:56:20.447Z,99854.78
2023-04-19T04:57:23.790Z,99856.06
2023-04-19T04:58:27.456Z,99861.91
2023-04-19T04:59:36.491Z,99862.13
2023-04-19T05:00:40.506Z,99855.88
2023-04-19T05:01:46.764Z,99858.56
2023-04-19T05:02:51.093Z,99856.06
2023-04-19T05:03:54.582Z,99864.19
2023-04-19T05:04:58.421Z,99861.47
2023-04-19T05:06:03.303Z,99864.19
2023-04-19T05:07:07.755Z,99863.16
2023-04-19T05:08:11.408Z,99860.88
2023-04-19T05:09:15.522Z,99871.06
2023-04-19T05:10:19.450Z,99868.13
2023-04-19T05:11:24.041Z,99873.31
2023-04-19T05:12:28.571Z,99863.13
2023-04-19T05:13:32.838Z,99866.03
2023-04-19T05:14:36.616Z,99874.59
2023-04-19T05:15:41.041Z,99871.25
2023-04-19T05:16:45.546Z,99865.84
2023-04-19T05:17:50.460Z,99864.81
2023-04-19T05:18:57.218Z,99863.78
2023-04-19T05:20:02.318Z,99867.31
2023-04-19T05:21:07.454Z,99872.09
2023-04-19T05:22:11.175Z,99870.63
2023-04-19T05:23:15.806Z,99874.16
2023-04-19T05:24:19.882Z,99869.78
2023-04-19T05:25:23.492Z,99860.25
2023-04-19T05:26:27.047Z,99864.63
2023-04-19T05:27:31.658Z,99865.66
2023-04-19T05:28:35.321Z,99876.03
2023-04-19T05:29:44.340Z,99876.84
2023-04-19T05:30:48.148Z,99872.28
2023-04-19T05:31:52.443Z,99878.31
2023-04-19T05:33:03.209Z,99879.34
2023-04-19T05:34:08.026Z,99878.09
2023-04-19T05:35:12.484Z,99881.81
2023-04-19T05:36:16.077Z,99885.38
2023-04-19T05:37:20.200Z,99878.53
2023-04-19T05:38:23.306Z,99891.59
2023-04-19T05:39:27.454Z,99888.91
2023-04-19T05:40:31.613Z,99887.66
2023-04-19T05:41:35.175Z,99890.97
2023-04-19T05:42:39.653Z,99893.47
2023-04-19T05:43:43.328Z,99898.88
2023-04-19T05:44:47.142Z,99894.69
2023-04-19T05:45:50.591Z,99897.19
2023-04-19T05:46:54.305Z,99896.34
2023-04-19T05:48:18.065Z,99898.00
2023-04-19T05:50:00.119Z,99903.41
2023-04-19T05:51:18.028Z,99908.41
2023-04-19T05:52:39.883Z,99911.94
2023-04-19T05:53:44.696Z,99906.53
2023-04-19T05:54:48.347Z,99915.44
2023-04-19T05:55:53.136Z,99914.03
2023-04-19T05:56:56.794Z,99916.28
2023-04-19T05:58:00.006Z,99912.53
2023-04-19T05:59:04.810Z,99912.09
2023-04-19T06:00:10.368Z,99911.06
2023-04-19T06:01:32.638Z,99910.44
2023-04-19T06:02:37.249Z,99911.69
2023-04-19T06:03:40.711Z,99911.69
2023-04-19T06:04:44.534Z,99915.81
2023-04-19T06:05:48.824Z,99910.00
2023-04-19T06:06:52.933Z,99916.25
2023-04-19T06:08:02.808Z,99917.09
2023-04-19T06:09:08.145Z,99915.81
2023-04-19T06:10:11.719Z,99923.28
2023-04-19T06:11:23.330Z,99924.94
2023-04-19T06:12:33.404Z,99921.19
2023-04-19T06:13:37.128Z,99927.00
2023-04-19T06:14:40.466Z,99923.25
2023-04-19T06:15:44.534Z,99926.63
2023-04-19T06:16:48.715Z,99931.38
2023-04-19T06:17:52.576Z,99929.50
2023-04-19T06:18:56.567Z,99931.56
2023-04-19T06:20:00.435Z,99930.06
2023-04-19T06:21:03.914Z,99926.97
2023-04-19T06:22:07.740Z,99933.22
2023-04-19T06:23:14.070Z,99935.72
2023-04-19T06:24:17.821Z,99931.75
2023-04-19T06:25:21.708Z,99934.19
2023-04-19T06:26:25.618Z,99940.44
2023-04-19T06:27:29.435Z,99936.91
2023-04-19T06:28:33.369Z,99940.00
2023-04-19T06:29:37.369Z,99945.81
2023-04-19T06:30:40.763Z,99941.84
2023-04-19T06:31:44.151Z,99935.97
2023-04-19T06:32:47.655Z,99947.22
2023-04-19T06:33:51.416Z,99950.13
2023-04-19T06:34:54.923Z,99940.31
2023-04-19T06:35:58.072Z,99942.56
2023-04-19T06:37:01.210Z,99942.56
2023-04-19T06:38:04.894Z,99949.25
2023-04-19T06:39:08.666Z,99944.22
2023-04-19T06:40:12.308Z,99942.13
2023-04-19T06:41:15.575Z,99937.00
2023-04-19T06:42:20.753Z,99944.34
2023-04-19T06:43:24.988Z,99948.97
2023-04-19T06:44:28.553Z,99940.81
2023-04-19T06:45:32.558Z,99937.44
2023-04-19T06:46:36.265Z,99940.53
2023-04-19T06:47:40.217Z,99943.19
2023-04-19T06:48:43.927Z,99935.88
2023-04-19T06:49:47.124Z,99939.59
2023-04-19T06:50:50.789Z,99940.13
2023-04-19T06:51:55.030Z,99941.50
2023-04-19T06:52:58.637Z,99952.09
2023-04-19T06:54:02.040Z,99950.41
2023-04-19T06:55:07.309Z,99952.25
2023-04-19T06:56:12.143Z,99955.59
2023-04-19T06:57:16.594Z,99955.75
2023-04-19T06:58:20.214Z,99952.38
2023-04-19T06:59:23.706Z,99955.66
2023-04-19T07:00:27.513Z,99960.19
2023-04-19T07:01:31.266Z,99959.06
2023-04-19T07:02:35.332Z,99959.22
2023-04-19T07:03:39.504Z,99963.97
2023-04-19T07:04:43.408Z,99965.19
2023-04-19T07:05:48.155Z,99957.81
2023-04-19T07:06:51.586Z,99961.00
2023-04-19T07:07:55.458Z,99956.00
2023-04-19T07:08:59.028Z,99962.63
2023-04-19T07:10:02.614Z,99957.19
2023-04-19T07:11:07.077Z,99962.56
2023-04-19T07:12:11.113Z,99964.84
2023-04-19T07:13:14.921Z,99954.38
2023-04-19T07:14:21.694Z,99955.41
2023-04-19T07:15:24.981Z,99958.75
2023-04-19T07:16:29.187Z,99956.59
2023-04-19T07:17:33.092Z,99954.97
2023-04-19T07:18:36.761Z,99955.13
2023-04-19T07:19:40.249Z,99959.88
2023-04-19T07:20:45.716Z,99950.44
2023-04-19T07:21:49.861Z,99961.00
2023-04-19T07:22:53.792Z,99950.75
2023-04-19T07:23:57.749Z,99950.75
2023-04-19T07:25:01.661Z,99962.94
2023-04-19T07:26:05.861Z,99954.66
2023-04-19T07:27:09.991Z,99954.06
2023-04-19T07:28:14.013Z,99958.44
2023-04-19T07:29:17.576Z,99961.91
2023-04-19T07:30:21.183Z,99959.91
2023-04-19T07:31:25.523Z,99966.50
2023-04-19T07:32:29.426Z,99959.00
2023-04-19T07:33:33.314Z,99953.88
2023-04-19T07:34:38.900Z,99954.41
2023-04-19T07:35:42.410Z,99953.94
2023-04-19T07:36:46.412Z,99962.00
2023-04-19T07:37:49.766Z,99960.59
2023-04-19T07:38:53.620Z,99959.81
2023-04-19T07:39:57.481Z,99969.28
2023-04-19T07:41:01.636Z,99958.41
2023-04-19T07:42:05.094Z,99965.38
2023-04-19T07:43:09.270Z,99965.38
2023-04-19T07:44:13.905Z,99966.72
2023-04-19T07:45:17.472Z,99971.22
2023-04-19T07:46:21.018Z,99965.69
2023-04-19T07:47:24.617Z,99965.19
2023-04-19T07:48:28.203Z,99969.34
2023-04-19T07:49:34.690Z,99971.88
2023-04-19T07:50:38.938Z,99970.13
2023-04-19T07:51:42.868Z,99970.63
2023-04-19T07:52:46.530Z,99972.06
2023-04-19T07:53:50.887Z,99978.28
2023-04-19T07:54:54.282Z,99970.59
2023-04-19T07:55:58.203Z,99976.34
2023-04-19T07:57:03.164Z,99976.72
2023-04-19T07:58:07.336Z,99977.75
2023-04-19T07:59:11.216Z,99972.97
2023-04-19T08:00:15.957Z,99970.88
2023-04-19T08:01:19.738Z,99974.56
2023-04-19T08:02:23.118Z,99973.97
2023-04-19T08:03:26.959Z,99982.38
2023-04-19T08:04:31.174Z,99975.88
2023-04-19T08:05:35.483Z,99979.69
2023-04-19T08:06:40.092Z,99989.75
2023-04-19T08:07:44.099Z,99982.19
2023-04-19T08:08:48.625Z,99981.69
2023-04-19T08:09:53.824Z,99988.88
2023-04-19T08:10:57.328Z,99986.44
2023-04-19T08:12:04.341Z,99981.59
2023-04-19T08:13:08.309Z,99980.13
2023-04-19T08:14:28.485Z,99977.50
2023-04-19T08:17:19.139Z,99978.31
2023-04-19T08:18:06.340Z,99978.47
2023-04-19T08:19:10.080Z,99983.06
2023-04-19T08:20:14.012Z,99979.63
2023-04-19T08:21:17.677Z,99978.09
2023-04-19T08:22:22.146Z,99974.44
2023-04-19T08:23:29.724Z,99976.00
2023-04-19T08:24:41.628Z,99985.09
2023-04-19T08:25:45.633Z,99988.63
2023-04-19T08:26:54.762Z,99993.56
2023-04-19T08:27:58.929Z,99988.00
2023-04-19T08:29:02.847Z,99984.03
2023-04-19T08:30:08.537Z,99981.94
2023-04-19T08:31:12.312Z,99997.41
2023-04-19T08:32:16.623Z,99987.59
2023-04-19T08:33:19.994Z,99985.81
2023-04-19T08:34:23.755Z,99981.66
2023-04-19T08:35:28.174Z,99988.97
2023-04-19T08:36:41.065Z,99989.91
2023-04-19T08:37:49.374Z,100001.56
2023-04-19T08:39:04.190Z,99998.28
2023-04-19T08:40:12.438Z,99999.38
2023-04-19T08:41:16.692Z,100004.94
2023-04-19T08:42:33.198Z,99996.69
2023-04-19T08:43:40.557Z,100000.88
2023-04-19T08:45:05.605Z,99992.78
2023-04-19T08:46:09.552Z,100003.91
2023-04-19T08:47:20.220Z,100001.00
2023-04-19T08:48:31.667Z,99992.53
2023-04-19T08:49:40.749Z,100004.56
2023-04-19T08:51:03.993Z,100007.34
2023-04-19T08:52:09.665Z,100009.47
2023-04-19T08:53:23.982Z,100004.44
2023-04-19T08:54:33.190Z,100014.31
2023-04-19T08:55:38.259Z,100002.66
2023-04-19T08:56:43.723Z,100001.25
2023-04-19T08:57:47.463Z,100004.25
2023-04-19T08:59:01.043Z,100014.63
2023-04-19T09:00:15.549Z,100004.06
2023-04-19T09:01:31.152Z,100003.41
2023-04-19T09:02:48.550Z,100006.28
2023-04-19T09:04:01.323Z,100004.16
2023-04-19T09:05:10.977Z,100013.19
2023-04-19T09:06:14.688Z,100009.13
2023-04-19T09:07:27.884Z,100005.59
2023-04-19T09:08:31.904Z,100013.13
2023-04-19T09:09:45.721Z,100000.50
2023-04-19T09:11:02.722Z,100012.75
2023-04-19T09:12:21.248Z,100012.94
2023-04-19T09:13:25.478Z,100008.19
2023-04-19T09:14:29.869Z,100011.44
2023-04-19T09:15:40.822Z,100013.91
2023-04-19T09:16:45.007Z,100021.59
2023-04-19T09:17:48.906Z,100015.50
2023-04-19T09:19:15.339Z,100017.97
2023-04-19T09:20:26.728Z,100016.31
2023-04-19T09:21:31.743Z,100015.94
2023-04-19T09:22:40.297Z,100014.75
2023-04-19T09:23:48.918Z,100015.53
2023-04-19T09:26:22.770Z,100011.88
2023-04-19T09:27:35.261Z,100014.72
2023-04-19T09:28:38.921Z,100021.22
2023-04-19T09:29:43.285Z,100013.91
2023-04-19T09:31:00.658Z,100016.31
2023-04-19T09:32:14.988Z,100022.78
2023-04-19T09:33:35.260Z,100021.97
2023-04-19T09:34:39.174Z,100022.75
2023-04-19T09:35:50.545Z,100022.41
2023-04-19T09:37:01.052Z,100030.03
2023-04-19T09:38:16.898Z,100024.31
2023-04-19T09:39:32.994Z,100028.41
2023-04-19T09:40:36.726Z,100037.69
2023-04-19T09:41:53.795Z,100024.31
2023-04-19T09:44:35.905Z,100029.88
2023-04-19T09:45:45.493Z,100037.94
2023-04-19T09:46:53.787Z,100036.31
2023-04-19T09:48:08.426Z,100030.63
2023-04-19T09:49:25.286Z,100027.28
2023-04-19T09:51:03.297Z,100031.53
2023-04-19T09:52:10.345Z,100040.44
2023-04-19T09:53:13.625Z,100043.78
2023-04-19T09:54:21.257Z,100047.81
2023-04-19T09:55:27.503Z,100044.47
2023-04-19T09:56:31.728Z,100044.47
2023-04-19T09:57:35.357Z,100044.09
2023-04-19T09:58:50.069Z,100055.84
2023-04-19T09:59:56.094Z,100039.63
2023-04-19T10:01:10.675Z,100048.63
2023-04-19T10:02:17.893Z,100053.50
2023-04-19T10:03:22.715Z,100047.03
2023-04-19T10:04:41.778Z,100046.25
2023-04-19T10:05:51.649Z,100046.66
2023-04-19T10:07:19.330Z,100049.50
2023-04-19T10:08:18.274Z,100056.38
2023-04-19T10:09:24.695Z,100052.28
2023-04-19T10:11:40.095Z,100054.31
2023-04-19T10:12:59.213Z,100055.56
2023-04-19T10:14:08.029Z,100055.56
2023-04-19T10:15:12.291Z,100053.50
2023-04-19T10:16:19.357Z,100053.88
2023-04-19T10:17:24.536Z,100053.78
2023-04-19T10:18:28.628Z,100055.81
2023-04-19T10:19:32.113Z,100063.25
2023-04-19T10:20:56.269Z,100061.22
2023-04-19T10:22:00.171Z,100056.75
2023-04-19T10:23:04.519Z,100055.97
2023-04-19T10:24:09.029Z,100064.03
2023-04-19T10:25:14.187Z,100053.47
2023-04-19T10:26:17.653Z,100068.78
2023-04-19T10:27:25.322Z,100063.94
2023-04-19T10:28:32.221Z,100060.81
2023-04-19T10:30:01.779Z,100063.16
2023-04-19T10:31:06.521Z,100059.91
2023-04-19T10:32:14.910Z,100055.94
2023-04-19T10:33:28.968Z,100053.88
2023-04-19T10:34:39.118Z,100059.59
2023-04-19T10:35:43.429Z,100057.56
2023-04-19T10:36:47.647Z,100059.56
2023-04-19T10:38:08.467Z,100061.19
2023-04-19T10:39:41.459Z,100058.34
2023-04-19T10:40:57.000Z,100063.25
2023-04-19T10:42:00.934Z,100066.84
2023-04-19T10:43:17.627Z,100056.31
2023-04-19T10:44:21.149Z,100063.25
2023-04-19T10:45:35.226Z,100053.53
2023-04-19T10:46:41.778Z,100060.00
2023-04-19T10:47:48.984Z,100066.47
2023-04-19T10:49:01.974Z,100064.03
2023-04-19T10:50:07.506Z,100060.78
2023-04-19T10:51:19.868Z,100062.34
2023-04-19T10:52:30.282Z,100055.09
2023-04-19T10:54:02.826Z,100059.16
2023-04-19T10:55:06.824Z,100064.78
2023-04-19T10:56:10.175Z,100053.41
2023-04-19T10:57:14.275Z,100051.84
2023-04-19T10:58:18.154Z,100057.50
2023-04-19T10:59:25.382Z,100059.13
2023-04-19T11:00:32.682Z,100058.34
2023-04-19T11:01:46.315Z,100059.84
2023-04-19T11:02:50.490Z,100053.38
2023-04-19T11:03:54.456Z,100056.63
2023-04-19T11:04:58.401Z,100056.63
2023-04-19T11:06:20.209Z,100063.66
2023-04-19T11:07:25.547Z,100069.13
2023-04-19T11:08:29.401Z,100060.94
2023-04-19T11:09:37.391Z,100064.47
2023-04-19T11:10:41.084Z,100057.03
2023-04-19T11:11:48.638Z,100063.66
2023-04-19T11:12:52.489Z,100065.56
2023-04-19T11:13:59.369Z,100061.22
2023-04-19T11:15:03.889Z,100060.72
2023-04-19T11:16:11.570Z,100060.50
2023-04-19T11:17:28.605Z,100065.69
2023-04-19T11:18:32.257Z,100068.53
2023-04-19T11:19:35.931Z,100065.25
2023-04-19T11:20:39.714Z,100061.47
2023-04-19T11:21:43.372Z,100065.81
2023-04-19T11:22:47.641Z,100064.91
2023-04-19T11:24:09.168Z,100068.03
2023-04-19T11:25:14.282Z,100064.44
2023-04-19T11:26:18.807Z,100065.88
2023-04-19T11:27:22.482Z,100067.19
2023-04-19T11:28:26.323Z,100065.44
2023-04-19T11:29:29.746Z,100068.94
2023-04-19T11:30:33.385Z,100066.56
2023-04-19T11:31:37.371Z,100064.53
2023-04-19T11:32:48.397Z,100066.44
2023-04-19T11:33:52.333Z,100065.69
2023-04-19T11:34:56.790Z,100070.72
2023-04-19T11:36:01.118Z,100063.91
2023-04-19T11:37:04.871Z,100077.25
2023-04-19T11:38:09.067Z,100061.03
2023-04-19T11:39:12.476Z,100072.78
2023-04-19T11:40:17.196Z,100070.31
2023-04-19T11:41:20.995Z,100064.28
2023-04-19T11:42:24.216Z,100066.47
2023-04-19T11:43:36.379Z,100067.28
2023-04-19T11:44:39.781Z,100053.19
2023-04-19T11:45:43.271Z,100062.91
2023-04-19T11:47:07.216Z,100058.53
2023-04-19T11:48:17.341Z,100061.81
2023-04-19T11:49:28.466Z,100057.66
2023-04-19T11:50:44.667Z,100063.81
2023-04-19T11:51:48.244Z,100053.91
2023-04-19T11:52:51.901Z,100059.13
2023-04-19T11:53:56.219Z,100053.09
2023-04-19T11:55:00.163Z,100058.03
2023-04-19T11:56:07.728Z,100056.94
2023-04-19T11:57:11.192Z,100055.13
2023-04-19T11:58:41.823Z,100053.44
2023-04-19T12:00:15.590Z,100052.31
2023-04-19T12:01:22.911Z,100054.84
2023-04-19T12:02:26.588Z,100057.28
2023-04-19T12:03:30.387Z,100056.38
2023-04-19T12:04:35.245Z,100052.66
2023-04-19T12:05:39.240Z,100062.97
2023-04-19T12:06:43.192Z,100048.78
2023-04-19T12:08:10.553Z,100052.09
2023-04-19T12:09:14.297Z,100049.94
2023-04-19T12:10:17.935Z,100049.75
2023-04-19T12:11:27.344Z,100051.13
2023-04-19T12:12:33.691Z,100047.53
2023-04-19T12:13:37.173Z,100052.84
2023-04-19T12:14:40.377Z,100050.25
2023-04-19T12:15:47.762Z,100045.50
2023-04-19T12:17:10.438Z,100036.31
2023-04-19T12:18:13.763Z,100050.75
2023-04-19T12:19:20.898Z,100046.81
2023-04-19T12:20:38.135Z,100045.28
2023-04-19T12:21:42.195Z,100046.34
2023-04-19T12:22:45.864Z,100042.72
2023-04-19T12:23:49.555Z,100047.28
2023-04-19T12:24:54.093Z,100047.97
2023-04-19T12:25:57.864Z,100044.47
2023-04-19T12:27:02.206Z,100046.56
2023-04-19T12:28:07.501Z,100048.47
2023-04-19T12:29:11.566Z,100049.81
2023-04-19T12:30:15.920Z,100049.28
2023-04-19T12:31:21.375Z,100049.00
2023-04-19T12:32:25.281Z,100051.41
2023-04-19T12:33:29.907Z,100055.03
2023-04-19T12:34:33.961Z,100050.44
2023-04-19T12:35:39.098Z,100053.88
2023-04-19T12:36:42.733Z,100049.25
2023-04-19T12:37:46.122Z,100052.09
2023-04-19T12:38:50.052Z,100047.63
2023-04-19T12:39:55.982Z,100051.34
2023-04-19T12:41:00.622Z,100051.19
2023-04-19T12:42:04.437Z,100055.78
2023-04-19T12:43:08.991Z,100060.06
2023-04-19T12:44:12.629Z,100066.13
2023-04-19T12:45:16.564Z,100062.97
2023-04-19T12:46:21.273Z,100069.81
2023-04-19T12:47:25.335Z,100063.75
2023-04-19T12:48:29.666Z,100069.56
2023-04-19T12:49:33.231Z,100072.97
2023-04-19T12:50:36.906Z,100074.81
2023-04-19T12:51:40.298Z,100072.06
2023-04-19T12:52:45.358Z,100072.91
2023-04-19T12:53:50.134Z,100074.50
2023-04-19T12:54:53.547Z,100066.63
2023-04-19T12:55:57.280Z,100064.53